Time;durP1;ratioP1;P1;durP2;ratioP2;P2;SDS_P1;SDS_P2;PMS_P1;PMS_P2;Temp;Humidity;BMP_temperature;BMP_pressure;BME280_temperature;BME280_humidity;BME280_pressure;Samples;Min_cycle;Max_cycle;Signal;HPM_P1;HPM_P2
2023/11/04 00:01:14;;;;;;;12.17;11.37;;;5.80;99.90;;;;;;4870735;29;20204;-77
2023/11/04 00:03:42;;;;;;;11.77;11.03;;;5.80;99.90;;;;;;4871612;29;20209;-77
2023/11/04 00:06:09;;;;;;;11.27;10.57;;;5.90;99.90;;;;;;4871159;29;20236;-77
2023/11/04 00:08:36;;;;;;;11.83;11.03;;;6.00;99.90;;;;;;4876610;29;20252;-78
2023/11/04 00:11:03;;;;;;;11.80;11.00;;;6.00;99.90;;;;;;4888211;29;20235;-76
2023/11/04 00:13:30;;;;;;;11.57;10.77;;;6.00;99.90;;;;;;4871260;29;20259;-76
2023/11/04 00:15:57;;;;;;;11.60;10.90;;;6.00;99.90;;;;;;4870972;29;20226;-78
2023/11/04 00:18:24;;;;;;;12.17;11.37;;;6.10;99.90;;;;;;4870370;29;20219;-78
2023/11/04 00:20:54;;;;;;;11.57;10.87;;;6.10;99.90;;;;;;4870384;29;20200;-77
2023/11/04 00:23:23;;;;;;;11.53;10.73;;;6.20;99.90;;;;;;4870669;29;20209;-77
2023/11/04 00:25:49;;;;;;;11.80;11.00;;;6.20;99.90;;;;;;4871354;29;20742;-77
2023/11/04 00:28:19;;;;;;;11.77;11.07;;;6.20;99.90;;;;;;4871641;29;20481;-77
2023/11/04 00:30:45;;;;;;;11.80;11.10;;;6.20;99.90;;;;;;4877623;29;20209;-77
2023/11/04 00:33:14;;;;;;;11.57;10.77;;;6.20;99.90;;;;;;4871018;29;20588;-76
2023/11/04 00:35:40;;;;;;;11.27;10.57;;;6.20;99.90;;;;;;4871335;29;20631;-78
2023/11/04 00:38:09;;;;;;;11.70;10.90;;;6.20;99.90;;;;;;4868624;29;20200;-77
2023/11/04 00:40:36;;;;;;;11.77;11.07;;;6.20;99.90;;;;;;4869778;29;20205;-77
2023/11/04 00:43:03;;;;;;;11.77;11.00;;;6.20;99.90;;;;;;4869619;29;20565;-78
2023/11/04 00:45:30;;;;;;;11.93;11.13;;;6.20;99.90;;;;;;4870319;29;20216;-77
2023/11/04 00:47:59;;;;;;;13.30;12.40;;;6.20;99.90;;;;;;4868891;29;20231;-76
2023/11/04 00:50:27;;;;;;;12.33;11.53;;;6.20;99.90;;;;;;4877519;29;20216;-77
2023/11/04 00:52:54;;;;;;;12.40;11.60;;;6.10;99.90;;;;;;4875433;29;20271;-77
2023/11/04 00:55:22;;;;;;;12.73;11.90;;;6.10;99.90;;;;;;4870998;29;20207;-77
2023/11/04 00:57:48;;;;;;;12.60;11.80;;;6.10;99.90;;;;;;4870576;29;20188;-78
2023/11/04 01:00:23;;;;;;;12.43;11.63;;;6.10;99.90;;;;;;4869641;29;20229;-77
2023/11/04 01:02:49;;;;;;;12.27;11.37;;;6.10;99.90;;;;;;4869271;29;20221;-78
2023/11/04 01:05:16;;;;;;;12.53;11.53;;;6.10;99.90;;;;;;4889172;29;20213;-77
2023/11/04 01:07:43;;;;;;;11.70;10.90;;;6.10;99.90;;;;;;4868870;29;20220;-77
2023/11/04 01:10:10;;;;;;;12.27;11.47;;;6.10;99.90;;;;;;4884910;29;20211;-77
2023/11/04 01:12:38;;;;;;;12.53;11.63;;;6.10;99.90;;;;;;4868787;29;20215;-77
2023/11/04 01:15:06;;;;;;;12.00;11.20;;;6.10;99.90;;;;;;4869201;29;20220;-78
2023/11/04 01:17:33;;;;;;;11.93;11.13;;;6.10;99.90;;;;;;4868861;29;20235;-78
2023/11/04 01:20:00;;;;;;;11.80;11.00;;;6.10;99.90;;;;;;4876036;29;20216;-78
2023/11/04 01:22:27;;;;;;;11.63;10.83;;;6.10;99.90;;;;;;4870520;29;20221;-78
2023/11/04 01:24:54;;;;;;;11.70;10.90;;;6.00;99.90;;;;;;4874646;29;20208;-77
2023/11/04 01:27:21;;;;;;;12.20;11.30;;;6.00;99.90;;;;;;4883961;29;20694;-77
2023/11/04 01:29:49;;;;;;;12.10;11.00;;;5.90;99.90;;;;;;4868565;29;20207;-78
2023/11/04 01:32:16;;;;;;;11.37;10.67;;;5.80;99.90;;;;;;4869419;29;20671;-77
2023/11/04 01:34:43;;;;;;;11.13;10.43;;;5.80;99.90;;;;;;4875762;29;20230;-78
2023/11/04 01:37:10;;;;;;;11.00;10.30;;;5.70;99.90;;;;;;4868397;29;20230;-78
2023/11/04 01:39:38;;;;;;;11.07;10.37;;;5.70;99.90;;;;;;4870329;29;20208;-78
2023/11/04 01:42:06;;;;;;;11.00;10.37;;;5.70;99.90;;;;;;4868292;29;20216;-78
2023/11/04 01:44:34;;;;;;;10.70;10.10;;;5.70;99.90;;;;;;4869562;29;20202;-78
2023/11/04 01:47:02;;;;;;;10.53;9.93;;;5.70;99.90;;;;;;4868224;29;20224;-77
2023/11/04 01:49:29;;;;;;;12.00;11.20;;;5.60;99.90;;;;;;4876045;29;20651;-77
2023/11/04 01:51:57;;;;;;;11.40;10.70;;;5.60;99.90;;;;;;4878847;29;20217;-78
2023/11/04 01:54:25;;;;;;;11.73;10.93;;;5.50;99.90;;;;;;4876019;29;20263;-77
2023/11/04 01:56:53;;;;;;;12.60;11.77;;;5.50;99.90;;;;;;4879537;29;20233;-77
2023/11/04 01:59:21;;;;;;;12.83;12.00;;;5.40;99.90;;;;;;4883302;29;20210;-78
2023/11/04 02:01:48;;;;;;;13.17;12.27;;;5.30;99.90;;;;;;4880153;29;20259;-78
2023/11/04 02:04:17;;;;;;;13.97;12.97;;;5.30;99.90;;;;;;4868937;29;20233;-78
2023/11/04 02:06:44;;;;;;;13.03;12.13;;;5.30;99.90;;;;;;4867199;29;20235;-78
2023/11/04 02:09:11;;;;;;;12.80;11.90;;;5.20;99.90;;;;;;4882068;29;20278;-78
2023/11/04 02:11:39;;;;;;;12.37;11.57;;;5.10;99.90;;;;;;4867495;29;20206;-78
2023/11/04 02:14:08;;;;;;;12.77;11.97;;;5.10;99.90;;;;;;4867161;29;20214;-77
2023/11/04 02:16:35;;;;;;;12.60;11.80;;;5.00;99.90;;;;;;4868246;29;20235;-78
2023/11/04 02:19:02;;;;;;;12.80;12.00;;;4.90;99.90;;;;;;4868266;29;20202;-78
2023/11/04 02:21:30;;;;;;;12.63;11.63;;;4.80;99.90;;;;;;4868505;29;20211;-78
2023/11/04 02:23:57;;;;;;;12.30;11.50;;;4.70;99.90;;;;;;4867338;29;20234;-78
2023/11/04 02:26:24;;;;;;;12.87;11.97;;;4.70;99.90;;;;;;4866782;29;20233;-78
2023/11/04 02:28:51;;;;;;;12.80;11.90;;;4.60;99.90;;;;;;4865300;29;20214;-78
2023/11/04 02:31:17;;;;;;;12.83;12.03;;;4.60;99.90;;;;;;4883479;29;20210;-78
2023/11/04 02:33:44;;;;;;;12.40;11.50;;;4.50;99.90;;;;;;4867433;29;20202;-78
2023/11/04 02:36:11;;;;;;;12.30;11.50;;;4.50;99.90;;;;;;4868945;29;20233;-78
2023/11/04 02:38:39;;;;;;;11.93;11.23;;;4.60;99.90;;;;;;4864507;29;20206;-78
2023/11/04 02:41:06;;;;;;;11.80;11.00;;;4.60;99.90;;;;;;4867151;29;20206;-78
2023/11/04 02:43:33;;;;;;;11.53;10.73;;;4.70;99.90;;;;;;4867555;29;20212;-77
2023/11/04 02:46:00;;;;;;;11.00;10.30;;;4.80;99.90;;;;;;4866026;29;20560;-77
2023/11/04 02:48:30;;;;;;;11.00;10.40;;;4.90;99.90;;;;;;4866778;29;20222;-77
2023/11/04 02:50:57;;;;;;;11.77;11.07;;;5.00;99.90;;;;;;4865712;29;20221;-78
2023/11/04 02:53:23;;;;;;;11.63;10.93;;;5.10;99.90;;;;;;4866487;29;20206;-78
2023/11/04 02:55:52;;;;;;;11.10;10.50;;;5.30;99.90;;;;;;4866689;29;20317;-78
2023/11/04 02:58:18;;;;;;;11.53;10.90;;;5.40;99.90;;;;;;4867614;29;20214;-77
2023/11/04 03:00:45;;;;;;;11.87;11.17;;;5.60;99.90;;;;;;4866910;29;20209;-77
2023/11/04 03:03:13;;;;;;;12.23;11.53;;;5.70;99.90;;;;;;4880568;29;20206;-77
2023/11/04 03:05:40;;;;;;;12.60;11.80;;;5.80;99.90;;;;;;4865852;29;20232;-78
2023/11/04 03:08:07;;;;;;;11.30;10.67;;;5.80;99.90;;;;;;4866854;29;20227;-78
2023/11/04 03:10:34;;;;;;;11.57;10.97;;;5.80;99.90;;;;;;4868426;29;20207;-78
2023/11/04 03:13:02;;;;;;;11.47;10.53;;;5.80;99.90;;;;;;4865880;29;20203;-78
2023/11/04 03:15:29;;;;;;;11.20;10.40;;;5.90;99.90;;;;;;4867646;29;20204;-78
2023/11/04 03:17:56;;;;;;;11.53;10.63;;;5.90;99.90;;;;;;4868059;29;20208;-78
2023/11/04 03:20:23;;;;;;;11.40;10.70;;;5.90;99.90;;;;;;4866014;29;20287;-78
2023/11/04 03:22:49;;;;;;;11.17;10.57;;;6.00;99.90;;;;;;4866332;29;20208;-78
2023/11/04 03:25:18;;;;;;;11.80;11.10;;;6.00;99.90;;;;;;4881381;29;20219;-78
2023/11/04 03:27:45;;;;;;;11.30;10.67;;;6.10;99.90;;;;;;4866674;29;20668;-78
2023/11/04 03:30:13;;;;;;;11.87;11.07;;;6.20;99.90;;;;;;4866385;29;20216;-78
2023/11/04 03:32:40;;;;;;;11.67;11.00;;;6.20;99.90;;;;;;4867575;29;20208;-78
2023/11/04 03:35:08;;;;;;;11.50;10.87;;;6.20;99.90;;;;;;4866199;29;20299;-78
2023/11/04 03:37:35;;;;;;;12.20;11.40;;;6.30;99.90;;;;;;4889359;29;20245;-77
2023/11/04 03:40:02;;;;;;;12.07;11.37;;;6.30;99.90;;;;;;4866576;29;20305;-78
2023/11/04 03:42:29;;;;;;;11.90;11.13;;;6.30;99.90;;;;;;4867165;29;20231;-77
2023/11/04 03:44:56;;;;;;;11.83;11.20;;;6.30;99.90;;;;;;4866494;29;20220;-77
2023/11/04 03:47:24;;;;;;;11.90;11.10;;;6.40;99.90;;;;;;4870508;29;20227;-78
2023/11/04 03:49:51;;;;;;;10.70;10.10;;;6.30;99.90;;;;;;4868131;29;20255;-78
2023/11/04 03:52:18;;;;;;;11.83;11.13;;;6.30;99.90;;;;;;4866051;29;20199;-78
2023/11/04 03:54:45;;;;;;;12.40;11.60;;;6.30;99.90;;;;;;4875217;29;20199;-78
2023/11/04 03:57:12;;;;;;;12.23;11.53;;;6.20;99.90;;;;;;4867525;29;20240;-78
2023/11/04 03:59:39;;;;;;;11.90;11.20;;;6.10;99.90;;;;;;4866319;29;20238;-78
2023/11/04 04:02:07;;;;;;;12.33;11.63;;;6.10;99.90;;;;;;4867537;29;20714;-78
2023/11/04 04:04:35;;;;;;;12.30;11.60;;;6.00;99.90;;;;;;4866520;29;20769;-79
2023/11/04 04:07:02;;;;;;;12.47;11.70;;;6.00;99.90;;;;;;4867525;29;20235;-78
2023/11/04 04:09:30;;;;;;;12.03;11.33;;;6.00;99.90;;;;;;4868594;29;20222;-78
2023/11/04 04:11:57;;;;;;;12.40;11.70;;;5.90;99.90;;;;;;4865587;29;20235;-78
2023/11/04 04:14:24;;;;;;;12.20;11.40;;;5.90;99.90;;;;;;4870282;29;20207;-78
2023/11/04 04:16:51;;;;;;;12.20;11.50;;;5.90;99.90;;;;;;4877749;29;20356;-77
2023/11/04 04:19:18;;;;;;;12.30;11.50;;;5.90;99.90;;;;;;4869480;29;20752;-78
2023/11/04 04:21:46;;;;;;;11.97;11.27;;;5.80;99.90;;;;;;4884113;29;20207;-78
2023/11/04 04:27:05;;;;;;;12.77;11.87;;;5.80;99.90;;;;;;4865818;29;20595;-80
2023/11/04 04:29:33;;;;;;;12.03;11.33;;;5.80;99.90;;;;;;4867195;29;20341;-80
2023/11/04 04:32:00;;;;;;;12.30;11.60;;;5.70;99.90;;;;;;4872446;29;20263;-80
2023/11/04 04:34:45;;;;;;;12.93;12.17;;;5.80;99.90;;;;;;4864210;29;20211;-79
2023/11/04 04:37:21;;;;;;;12.43;11.73;;;5.80;99.90;;;;;;4872483;29;20222;-80
2023/11/04 04:39:51;;;;;;;12.83;12.03;;;5.70;99.90;;;;;;4871278;29;20203;-79
2023/11/04 04:42:21;;;;;;;12.57;11.77;;;5.70;99.90;;;;;;4863213;29;20223;-80
2023/11/04 04:44:48;;;;;;;13.20;12.30;;;5.70;99.90;;;;;;4880092;29;20743;-81
2023/11/04 04:47:15;;;;;;;12.77;12.07;;;5.60;99.90;;;;;;4882683;29;20255;-80
2023/11/04 04:49:42;;;;;;;12.33;11.63;;;5.70;99.90;;;;;;4868434;29;20231;-81
2023/11/04 04:52:10;;;;;;;12.00;11.30;;;5.70;99.90;;;;;;4865767;29;20237;-80
2023/11/04 04:54:38;;;;;;;12.10;11.40;;;5.80;99.90;;;;;;4876997;29;20303;-80
2023/11/04 04:57:05;;;;;;;12.20;11.50;;;5.80;99.90;;;;;;4871770;29;20232;-81
2023/11/04 04:59:33;;;;;;;12.60;11.70;;;5.80;99.90;;;;;;4875298;29;20347;-81
2023/11/04 05:01:59;;;;;;;12.50;11.70;;;5.80;99.90;;;;;;4878471;29;20729;-81
2023/11/04 05:04:26;;;;;;;12.43;11.67;;;5.90;99.90;;;;;;4893232;29;20264;-80
2023/11/04 05:06:53;;;;;;;12.40;11.60;;;5.90;99.90;;;;;;4867986;29;20230;-81
2023/11/04 05:09:21;;;;;;;12.13;11.43;;;5.90;99.90;;;;;;4876499;29;20222;-80
2023/11/04 05:11:49;;;;;;;11.77;11.07;;;6.00;99.90;;;;;;4868544;29;20208;-80
2023/11/04 05:14:16;;;;;;;12.30;11.60;;;6.00;99.90;;;;;;4879539;29;20211;-81
2023/11/04 05:16:43;;;;;;;12.13;11.43;;;6.10;99.90;;;;;;4877646;29;20227;-80
2023/11/04 05:19:09;;;;;;;12.20;11.50;;;6.10;99.90;;;;;;4879249;29;20214;-81
2023/11/04 05:21:36;;;;;;;12.20;11.50;;;6.20;99.90;;;;;;4866574;29;20589;-81
2023/11/04 05:24:04;;;;;;;12.00;11.30;;;6.20;99.90;;;;;;4880758;29;20204;-79
2023/11/04 05:26:31;;;;;;;12.30;11.60;;;6.30;99.90;;;;;;4870220;29;20239;-81
2023/11/04 05:28:59;;;;;;;11.37;10.77;;;6.30;99.90;;;;;;4869428;29;20233;-81
2023/11/04 05:31:26;;;;;;;12.10;11.40;;;6.40;99.90;;;;;;4864612;29;20208;-81
2023/11/04 05:33:53;;;;;;;12.30;11.60;;;6.40;99.90;;;;;;4867111;29;20261;-81
2023/11/04 05:36:19;;;;;;;11.83;11.23;;;6.40;99.90;;;;;;4862507;29;20220;-78
2023/11/04 05:38:50;;;;;;;12.23;11.53;;;6.40;99.90;;;;;;4862728;29;20207;-80
2023/11/04 05:41:18;;;;;;;12.00;11.40;;;6.40;99.90;;;;;;4868339;29;20209;-77
2023/11/04 05:43:45;;;;;;;12.23;11.50;;;6.40;99.90;;;;;;4871372;29;20211;-77
2023/11/04 05:46:13;;;;;;;11.57;10.97;;;6.30;99.90;;;;;;4866433;29;20231;-77
2023/11/04 05:48:40;;;;;;;12.13;11.43;;;6.30;99.90;;;;;;4868579;29;20219;-77
2023/11/04 05:51:07;;;;;;;12.13;11.43;;;6.30;99.90;;;;;;4872782;29;20208;-77
2023/11/04 05:53:33;;;;;;;11.90;11.10;;;6.20;99.90;;;;;;4870165;29;20204;-77
2023/11/04 05:56:02;;;;;;;12.70;12.00;;;6.20;99.90;;;;;;4873034;29;20227;-77
2023/11/04 05:58:29;;;;;;;12.07;11.43;;;6.30;99.90;;;;;;4871137;29;20204;-76
2023/11/04 06:00:56;;;;;;;11.90;11.30;;;6.20;99.90;;;;;;4860127;29;20783;-77
2023/11/04 06:03:24;;;;;;;11.30;10.70;;;6.20;99.90;;;;;;4860000;29;20195;-77
2023/11/04 06:05:52;;;;;;;11.57;10.97;;;6.20;99.90;;;;;;4858238;29;20233;-77
2023/11/04 06:08:20;;;;;;;11.10;10.50;;;6.20;99.90;;;;;;4859289;29;20216;-77
2023/11/04 06:10:47;;;;;;;11.40;10.80;;;6.10;99.90;;;;;;4860076;29;20311;-77
2023/11/04 06:13:14;;;;;;;11.20;10.60;;;6.10;99.90;;;;;;4858498;29;20585;-76
2023/11/04 06:15:40;;;;;;;11.47;10.87;;;6.00;99.90;;;;;;4859724;29;20220;-76
2023/11/04 06:18:07;;;;;;;10.87;10.27;;;6.00;99.90;;;;;;4858939;29;20264;-77
2023/11/04 06:20:41;;;;;;;11.33;10.73;;;6.00;99.90;;;;;;4876112;29;20203;-80
2023/11/04 06:23:08;;;;;;;11.10;10.50;;;6.00;99.90;;;;;;4863867;29;20222;-80
2023/11/04 06:25:38;;;;;;;11.10;10.50;;;6.00;99.90;;;;;;4868659;29;20200;-83
2023/11/04 06:28:07;;;;;;;11.73;11.07;;;6.10;99.90;;;;;;4868255;29;20637;-83
2023/11/04 06:30:35;;;;;;;11.80;11.20;;;6.10;99.90;;;;;;4868833;29;20215;-83
2023/11/04 06:33:04;;;;;;;11.60;11.00;;;6.20;99.90;;;;;;4874419;29;20207;-80
2023/11/04 06:35:34;;;;;;;11.67;11.00;;;6.20;99.90;;;;;;4868812;29;20282;-81
2023/11/04 06:38:02;;;;;;;11.50;10.90;;;6.20;99.90;;;;;;4862458;29;20294;-81
2023/11/04 06:40:29;;;;;;;11.23;10.63;;;6.20;99.90;;;;;;4871193;29;20268;-81
2023/11/04 06:42:56;;;;;;;11.43;10.83;;;6.30;99.90;;;;;;4867974;29;20212;-81
2023/11/04 06:45:23;;;;;;;11.20;10.60;;;6.30;99.90;;;;;;4861823;29;20268;-80
2023/11/04 06:47:50;;;;;;;11.20;10.60;;;6.30;99.90;;;;;;4864045;29;20571;-76
2023/11/04 06:50:17;;;;;;;11.37;10.77;;;6.40;99.90;;;;;;4865764;29;20227;-76
2023/11/04 06:52:45;;;;;;;11.23;10.63;;;6.30;99.90;;;;;;4868828;29;20199;-77
2023/11/04 06:55:12;;;;;;;11.70;11.00;;;6.40;99.90;;;;;;4877417;29;20202;-77
2023/11/04 06:57:39;;;;;;;11.40;10.80;;;6.30;99.90;;;;;;4869903;29;20220;-77
2023/11/04 07:00:08;;;;;;;11.33;10.70;;;6.30;99.90;;;;;;4868793;29;20210;-77
2023/11/04 07:02:34;;;;;;;12.30;11.60;;;6.40;99.90;;;;;;4872168;29;20732;-76
2023/11/04 07:05:02;;;;;;;11.70;11.10;;;6.40;99.90;;;;;;4876894;29;20211;-77
2023/11/04 07:07:29;;;;;;;11.53;10.83;;;6.40;99.90;;;;;;4871981;29;20525;-76
2023/11/04 07:09:59;;;;;;;11.17;10.57;;;6.40;99.90;;;;;;4871362;29;20235;-77
2023/11/04 07:12:26;;;;;;;11.60;10.90;;;6.50;99.90;;;;;;4872263;29;20232;-78
2023/11/04 07:14:53;;;;;;;11.40;10.67;;;6.50;99.90;;;;;;4874126;29;20260;-79
2023/11/04 07:17:26;;;;;;;11.30;10.70;;;6.50;99.90;;;;;;4880486;29;20316;-81
2023/11/04 07:19:55;;;;;;;11.43;10.83;;;6.60;99.90;;;;;;4866188;29;20204;-82
2023/11/04 07:22:22;;;;;;;11.40;10.80;;;6.60;99.90;;;;;;4879088;29;20645;-78
2023/11/04 07:24:49;;;;;;;11.23;10.63;;;6.60;99.90;;;;;;4872543;29;20221;-77
2023/11/04 07:27:17;;;;;;;11.57;10.97;;;6.80;99.90;;;;;;4877514;29;20266;-78
2023/11/04 07:29:44;;;;;;;11.60;11.00;;;6.90;99.90;;;;;;4878779;29;20317;-77
2023/11/04 07:32:11;;;;;;;11.30;10.70;;;7.00;99.90;;;;;;4870340;29;20287;-78
2023/11/04 07:34:38;;;;;;;11.50;10.90;;;7.10;99.90;;;;;;4867246;29;20208;-79
2023/11/04 07:37:05;;;;;;;11.80;11.10;;;7.30;99.90;;;;;;4875896;29;20232;-78
2023/11/04 07:39:34;;;;;;;11.50;10.90;;;7.40;99.90;;;;;;4870860;29;20639;-77
2023/11/04 07:42:01;;;;;;;11.57;10.97;;;7.40;99.90;;;;;;4870675;29;20269;-78
2023/11/04 07:44:30;;;;;;;11.50;10.90;;;7.60;99.90;;;;;;4873896;29;20747;-78
2023/11/04 07:46:59;;;;;;;11.17;10.47;;;7.80;99.90;;;;;;4871860;29;20268;-78
2023/11/04 07:49:26;;;;;;;11.03;10.43;;;8.00;99.90;;;;;;4879741;29;20252;-77
2023/11/04 07:51:54;;;;;;;11.40;10.70;;;8.30;99.90;;;;;;4874673;29;20206;-79
2023/11/04 07:54:20;;;;;;;10.30;9.70;;;8.60;99.90;;;;;;4875754;29;20202;-77
2023/11/04 07:56:47;;;;;;;10.40;9.80;;;8.80;99.90;;;;;;4875914;29;20226;-78
2023/11/04 07:59:14;;;;;;;2.83;2.63;;;9.10;99.90;;;;;;4878130;29;20289;-78
2023/11/04 08:01:42;;;;;;;2.93;2.70;;;9.20;99.90;;;;;;4875016;29;20280;-77
2023/11/04 08:04:09;;;;;;;2.87;2.67;;;9.50;99.90;;;;;;4881993;29;20201;-78
2023/11/04 08:06:36;;;;;;;3.17;2.50;;;10.00;99.90;;;;;;4874625;29;20381;-78
2023/11/04 08:09:03;;;;;;;5.13;4.83;;;10.30;99.90;;;;;;4875948;29;20612;-78
2023/11/04 08:11:30;;;;;;;6.53;6.13;;;10.70;99.90;;;;;;4875995;29;20202;-81
2023/11/04 08:13:59;;;;;;;7.10;6.60;;;11.00;99.90;;;;;;4881005;29;20684;-78
2023/11/04 08:16:26;;;;;;;5.10;4.80;;;11.20;99.90;;;;;;4872134;29;20754;-77
2023/11/04 08:18:54;;;;;;;5.80;5.40;;;11.30;99.90;;;;;;4875628;29;20196;-78
2023/11/04 08:21:22;;;;;;;5.90;5.50;;;11.20;99.90;;;;;;4872487;29;20257;-78
2023/11/04 08:23:49;;;;;;;6.00;5.60;;;11.00;99.90;;;;;;4872106;29;20206;-79
2023/11/04 08:26:16;;;;;;;5.83;5.33;;;10.80;99.90;;;;;;4863808;29;20243;-77
2023/11/04 08:28:43;;;;;;;5.57;5.17;;;10.60;99.90;;;;;;4870728;29;20205;-78
2023/11/04 08:31:10;;;;;;;5.60;5.30;;;10.70;99.90;;;;;;4863306;29;20240;-78
2023/11/04 08:33:36;;;;;;;5.50;5.10;;;11.00;99.90;;;;;;4863828;29;20265;-77
2023/11/04 08:36:07;;;;;;;5.73;5.33;;;10.90;99.90;;;;;;4863509;29;20306;-80
2023/11/04 08:38:41;;;;;;;5.80;5.40;;;10.70;99.90;;;;;;4876784;29;20688;-86
2023/11/04 08:41:13;;;;;;;5.27;4.97;;;10.40;99.90;;;;;;4862930;29;20226;-81
2023/11/04 08:43:57;;;;;;;4.90;4.60;;;10.30;99.90;;;;;;4872882;29;20650;-81
2023/11/04 08:46:24;;;;;;;5.03;4.67;;;10.20;99.90;;;;;;4878664;29;20226;-77
2023/11/04 08:48:51;;;;;;;4.70;4.40;;;10.30;99.90;;;;;;4881401;29;20295;-78
2023/11/04 08:51:19;;;;;;;4.30;4.00;;;10.20;99.90;;;;;;4865055;29;20683;-78
2023/11/04 08:53:46;;;;;;;4.80;4.50;;;10.20;99.90;;;;;;4869381;29;20615;-78
2023/11/04 08:56:13;;;;;;;5.40;5.10;;;10.10;99.90;;;;;;4874581;29;20235;-78
2023/11/04 08:58:39;;;;;;;6.27;5.87;;;10.30;99.90;;;;;;4866901;29;20573;-78
2023/11/04 09:01:07;;;;;;;6.70;6.20;;;10.50;99.90;;;;;;4866464;29;20210;-78
2023/11/04 09:03:33;;;;;;;6.10;5.80;;;10.70;99.90;;;;;;4872421;29;20643;-78
2023/11/04 09:06:00;;;;;;;5.73;5.33;;;10.80;99.90;;;;;;4866170;29;20248;-77
2023/11/04 09:08:35;;;;;;;5.23;4.83;;;10.90;99.90;;;;;;4865905;29;20205;-81
2023/11/04 09:14:30;;;;;;;6.27;5.87;;;11.00;99.90;;;;;;4812723;29;20203;-82
2023/11/04 09:16:57;;;;;;;6.03;5.63;;;10.90;99.90;;;;;;4836422;29;20232;-77
2023/11/04 09:19:24;;;;;;;6.40;6.00;;;10.90;99.90;;;;;;4872387;29;20214;-77
2023/11/04 09:21:52;;;;;;;5.87;5.57;;;11.10;99.90;;;;;;4872213;29;20277;-77
2023/11/04 09:24:20;;;;;;;6.50;6.10;;;11.30;99.90;;;;;;4873089;29;20239;-78
2023/11/04 09:26:47;;;;;;;7.00;6.60;;;11.50;99.90;;;;;;4873015;29;20233;-77
2023/11/04 09:29:14;;;;;;;7.20;6.80;;;11.30;99.90;;;;;;4870981;29;20242;-78
2023/11/04 09:31:40;;;;;;;7.07;6.67;;;11.10;99.90;;;;;;4880904;29;20286;-77
2023/11/04 09:34:08;;;;;;;7.00;6.60;;;11.10;99.90;;;;;;4875469;29;20208;-77
2023/11/04 09:36:35;;;;;;;6.30;5.90;;;11.30;99.90;;;;;;4869706;29;20610;-77
2023/11/04 09:39:03;;;;;;;6.20;5.90;;;11.30;99.90;;;;;;4873862;29;20217;-77
2023/11/04 09:41:31;;;;;;;5.53;5.10;;;11.20;99.90;;;;;;4877739;29;20217;-78
2023/11/04 09:43:58;;;;;;;2.90;2.80;;;11.10;99.90;;;;;;4876491;29;20218;-78
2023/11/04 09:46:25;;;;;;;2.80;2.70;;;11.20;99.90;;;;;;4870210;29;20227;-79
2023/11/04 09:48:52;;;;;;;3.07;2.87;;;11.20;99.90;;;;;;4882417;29;20198;-77
2023/11/04 09:51:22;;;;;;;2.90;2.80;;;11.10;99.90;;;;;;4876392;29;20296;-78
2023/11/04 09:53:53;;;;;;;3.20;3.00;;;11.00;99.90;;;;;;4877372;29;20215;-78
2023/11/04 09:56:22;;;;;;;2.23;2.13;;;10.80;99.90;;;;;;4884341;29;20231;-77
2023/11/04 09:58:50;;;;;;;2.40;2.30;;;10.80;99.90;;;;;;4880107;29;20212;-78
2023/11/04 10:01:19;;;;;;;2.40;2.20;;;10.70;99.90;;;;;;4865481;29;20203;-78
2023/11/04 10:03:46;;;;;;;2.20;2.10;;;10.60;99.90;;;;;;4871953;29;20199;-77
2023/11/04 10:06:13;;;;;;;2.23;2.13;;;10.60;99.90;;;;;;4864367;29;20248;-78
2023/11/04 10:08:41;;;;;;;2.60;2.50;;;10.60;99.90;;;;;;4875252;29;20272;-78
2023/11/04 10:11:07;;;;;;;2.30;2.20;;;10.70;99.90;;;;;;4862596;29;20243;-77
2023/11/04 10:13:34;;;;;;;2.40;2.20;;;10.70;99.90;;;;;;4875805;29;20711;-78
2023/11/04 10:16:03;;;;;;;2.03;1.93;;;10.80;99.90;;;;;;4874335;29;20249;-76
2023/11/04 10:18:31;;;;;;;2.40;2.30;;;10.80;99.90;;;;;;4879667;29;20643;-77
2023/11/04 10:20:58;;;;;;;2.30;2.20;;;11.00;99.90;;;;;;4878186;29;20256;-77
2023/11/04 10:23:25;;;;;;;2.50;2.30;;;11.10;99.90;;;;;;4881740;29;20208;-77
2023/11/04 10:25:52;;;;;;;2.30;2.20;;;11.10;99.90;;;;;;4869910;29;20215;-77
2023/11/04 10:28:23;;;;;;;2.67;2.10;;;11.30;99.90;;;;;;4877297;29;20236;-78
2023/11/04 10:30:52;;;;;;;2.20;2.10;;;11.20;99.90;;;;;;4867874;29;20238;-77
2023/11/04 10:33:22;;;;;;;2.40;2.30;;;11.20;99.90;;;;;;4874100;29;20213;-77
2023/11/04 10:35:50;;;;;;;2.20;2.10;;;11.10;99.90;;;;;;4878819;29;20232;-77
2023/11/04 10:38:19;;;;;;;2.90;2.07;;;11.00;99.90;;;;;;4876273;29;20251;-78
2023/11/04 10:40:49;;;;;;;2.10;2.00;;;11.00;99.90;;;;;;4868072;29;20197;-77
2023/11/04 10:43:19;;;;;;;2.77;2.53;;;11.00;99.90;;;;;;4878337;29;20204;-78
2023/11/04 10:45:55;;;;;;;2.60;2.40;;;11.00;99.90;;;;;;4869105;29;20230;-83
2023/11/04 10:48:59;;;;;;;3.07;2.33;;;10.90;99.90;;;;;;4875787;29;20302;-83
2023/11/04 10:55:34;;;;;;;2.30;2.20;;;10.80;99.90;;;;;;4862204;29;20256;-77
2023/11/04 10:58:04;;;;;;;2.23;2.13;;;10.70;99.90;;;;;;4879260;29;20684;-77
2023/11/04 11:00:34;;;;;;;2.33;2.23;;;10.60;99.90;;;;;;4880597;29;20212;-78
2023/11/04 11:03:21;;;;;;;2.10;2.00;;;10.50;99.90;;;;;;4882646;29;20213;-81
2023/11/04 11:05:56;;;;;;;2.70;2.20;;;10.50;99.90;;;;;;4884450;29;20237;-84
2023/11/04 11:08:26;;;;;;;2.20;2.10;;;10.50;99.90;;;;;;4881918;29;20213;-79
2023/11/04 11:11:00;;;;;;;5.47;3.20;;;10.60;99.90;;;;;;4873598;29;20349;-78
2023/11/04 11:13:32;;;;;;;3.03;2.67;;;10.60;99.90;;;;;;4881023;29;20214;-78
2023/11/04 11:15:59;;;;;;;6.77;3.43;;;10.70;99.90;;;;;;4877200;29;20613;-77
2023/11/04 11:18:27;;;;;;;3.43;2.83;;;10.80;99.90;;;;;;4880958;29;20748;-77
2023/11/04 11:21:11;;;;;;;2.27;2.10;;;10.90;99.90;;;;;;4876346;29;20246;-84
2023/11/04 11:23:38;;;;;;;2.00;1.90;;;11.00;99.90;;;;;;4877490;29;20222;-82
2023/11/04 11:26:06;;;;;;;2.10;2.00;;;11.10;99.90;;;;;;4883266;29;20225;-83
2023/11/04 11:28:36;;;;;;;2.57;1.90;;;11.30;99.90;;;;;;4882638;29;20212;-81
2023/11/04 11:31:04;;;;;;;2.13;1.90;;;11.30;99.90;;;;;;4883308;29;20227;-79
2023/11/04 11:33:31;;;;;;;2.00;1.90;;;11.40;99.90;;;;;;4880369;29;20271;-82
2023/11/04 11:36:10;;;;;;;2.00;1.90;;;11.40;99.90;;;;;;4877129;29;20228;-83
2023/11/04 11:38:40;;;;;;;2.10;2.00;;;11.40;99.90;;;;;;4879142;29;20234;-81
2023/11/04 11:41:10;;;;;;;2.00;1.90;;;11.40;99.90;;;;;;4880932;29;20204;-82
2023/11/04 11:43:38;;;;;;;2.00;1.90;;;11.40;99.90;;;;;;4877379;29;20199;-82
2023/11/04 11:46:11;;;;;;;2.63;2.43;;;11.40;99.90;;;;;;4873946;29;20231;-82
2023/11/04 11:48:40;;;;;;;2.30;2.10;;;11.50;99.90;;;;;;4876488;29;20694;-82
2023/11/04 11:51:11;;;;;;;2.30;2.10;;;11.40;99.90;;;;;;4874633;29;20236;-81
2023/11/04 11:53:41;;;;;;;2.20;2.10;;;11.40;99.90;;;;;;4875087;29;20702;-82
2023/11/04 11:56:08;;;;;;;2.20;2.10;;;11.50;99.90;;;;;;4872604;29;20229;-78
2023/11/04 11:58:37;;;;;;;2.43;2.30;;;11.60;99.90;;;;;;4871400;29;20252;-78
2023/11/04 12:01:05;;;;;;;2.40;2.27;;;11.60;99.90;;;;;;4882331;29;20210;-76
2023/11/04 12:03:34;;;;;;;3.33;2.93;;;11.60;99.90;;;;;;4879285;29;20193;-78
2023/11/04 12:06:01;;;;;;;4.40;4.10;;;11.50;99.90;;;;;;4885746;29;20697;-77
2023/11/04 12:08:30;;;;;;;3.90;3.70;;;11.40;99.90;;;;;;4878778;29;20339;-78
2023/11/04 12:10:57;;;;;;;4.93;4.50;;;11.30;99.90;;;;;;4874914;29;20236;-78
2023/11/04 12:13:37;;;;;;;5.07;4.77;;;11.10;99.90;;;;;;4881271;29;20202;-83
2023/11/04 12:16:05;;;;;;;2.80;2.60;;;11.00;99.90;;;;;;4874382;29;20240;-78
2023/11/04 12:18:32;;;;;;;2.83;2.23;;;11.00;99.90;;;;;;4886237;29;20674;-78
2023/11/04 12:20:59;;;;;;;2.20;2.10;;;10.90;99.90;;;;;;4883185;29;20215;-78
2023/11/04 12:23:29;;;;;;;3.40;2.10;;;11.00;99.90;;;;;;4879530;29;20205;-77
2023/11/04 12:25:58;;;;;;;2.50;2.00;;;11.00;99.90;;;;;;4879764;29;20225;-78
2023/11/04 12:28:27;;;;;;;2.00;1.90;;;11.10;99.90;;;;;;4881144;29;20207;-78
2023/11/04 12:30:59;;;;;;;2.10;2.00;;;11.20;99.90;;;;;;4879969;29;20298;-77
2023/11/04 12:33:26;;;;;;;2.00;1.90;;;11.20;99.90;;;;;;4881985;29;20219;-78
2023/11/04 12:36:01;;;;;;;2.07;1.97;;;11.30;99.90;;;;;;4874210;29;20405;-82
2023/11/04 12:38:28;;;;;;;2.10;2.00;;;11.30;99.90;;;;;;4874141;29;20228;-86
2023/11/04 12:40:57;;;;;;;2.03;1.93;;;11.30;99.90;;;;;;4873671;29;20219;-82
2023/11/04 12:43:24;;;;;;;2.20;2.10;;;11.30;99.90;;;;;;4872110;29;20211;-82
2023/11/04 12:45:53;;;;;;;2.37;2.17;;;11.20;99.90;;;;;;4876731;29;20223;-79
2023/11/04 12:48:20;;;;;;;2.37;2.17;;;11.20;99.90;;;;;;4872861;29;20235;-79
2023/11/04 12:50:47;;;;;;;2.30;2.20;;;11.10;99.90;;;;;;4872427;29;20256;-81
2023/11/04 12:53:14;;;;;;;2.07;1.97;;;11.10;99.90;;;;;;4863772;29;20295;-81
2023/11/04 12:55:41;;;;;;;5.67;5.37;;;11.00;99.90;;;;;;4877377;29;20220;-84